createdAt,value
2022-12-03T00:01:50.627Z,71.82
2022-12-03T00:04:17.579Z,72.10
2022-12-03T00:06:44.559Z,72.21
2022-12-03T00:09:11.737Z,73.23
2022-12-03T00:11:38.746Z,74.38
2022-12-03T00:14:05.832Z,74.40
2022-12-03T00:16:32.897Z,73.83
2022-12-03T00:18:59.921Z,73.28
2022-12-03T00:21:26.969Z,72.85
2022-12-03T00:23:53.997Z,72.36
2022-12-03T00:26:21.065Z,73.46
2022-12-03T00:28:48.977Z,72.79
2022-12-03T00:31:16.189Z,72.42
2022-12-03T00:33:43.280Z,72.81
2022-12-03T00:36:10.411Z,71.27
2022-12-03T00:38:37.436Z,72.08
2022-12-03T00:41:04.483Z,72.98
2022-12-03T00:43:31.463Z,72.48
2022-12-03T00:45:58.564Z,72.22
2022-12-03T00:48:25.919Z,74.32
2022-12-03T00:50:52.917Z,73.93
2022-12-03T00:53:19.870Z,73.02
2022-12-03T00:55:46.864Z,72.17
2022-12-03T00:58:13.882Z,72.29
2022-12-03T01:00:40.871Z,73.01
2022-12-03T01:03:07.882Z,72.83
2022-12-03T01:05:34.916Z,74.52
2022-12-03T01:08:02.009Z,73.36
2022-12-03T01:10:29.027Z,73.96
2022-12-03T01:12:56.065Z,73.53
2022-12-03T01:15:23.088Z,74.13
2022-12-03T01:17:50.077Z,74.58
2022-12-03T01:20:17.072Z,74.64
2022-12-03T01:22:44.113Z,72.97
2022-12-03T01:25:11.550Z,73.38
2022-12-03T01:27:39.251Z,73.77
2022-12-03T01:30:07.080Z,74.20
2022-12-03T01:32:34.083Z,73.86
2022-12-03T01:35:01.094Z,73.08
2022-12-03T01:37:28.202Z,72.60
2022-12-03T01:39:55.249Z,73.38
2022-12-03T01:42:26.592Z,73.32
2022-12-03T01:44:56.847Z,73.70
2022-12-03T01:47:37.156Z,72.41
2022-12-03T01:50:17.976Z,72.45
2022-12-03T01:52:45.611Z,70.82
2022-12-03T01:55:18.433Z,71.31
2022-12-03T01:57:51.719Z,71.32
2022-12-03T02:00:22.707Z,72.11
2022-12-03T02:02:52.705Z,72.19
2022-12-03T02:05:23.612Z,72.43
2022-12-03T02:07:51.467Z,72.22
2022-12-03T02:10:23.606Z,72.51
2022-12-03T02:13:01.157Z,74.11
2022-12-03T02:15:28.400Z,74.53
2022-12-03T02:17:55.826Z,73.53
2022-12-03T02:20:23.117Z,74.43
2022-12-03T02:22:53.035Z,75.80
2022-12-03T02:25:23.448Z,75.73
2022-12-03T02:27:53.178Z,74.80
2022-12-03T02:30:22.876Z,73.99
2022-12-03T02:32:51.876Z,74.42
2022-12-03T02:35:31.982Z,75.95
2022-12-03T02:38:23.205Z,75.49
2022-12-03T02:40:55.368Z,76.49
2022-12-03T02:43:23.793Z,77.22
2022-12-03T02:45:54.020Z,76.90
2022-12-03T02:48:37.166Z,76.61
2022-12-03T02:51:07.339Z,77.68
2022-12-03T02:53:47.462Z,79.06
2022-12-03T02:56:18.515Z,79.66
2022-12-03T02:58:48.495Z,77.53
2022-12-03T03:01:15.865Z,78.45
2022-12-03T03:03:45.010Z,77.48
2022-12-03T03:06:12.634Z,76.57
2022-12-03T03:08:41.884Z,75.99
2022-12-03T03:11:08.890Z,75.49
2022-12-03T03:13:36.811Z,74.32
2022-12-03T03:16:05.907Z,74.36
2022-12-03T03:18:33.886Z,75.26
2022-12-03T03:21:01.321Z,76.78
2022-12-03T03:23:28.486Z,77.36
2022-12-03T03:26:10.507Z,77.17
2022-12-03T03:28:41.773Z,78.16
2022-12-03T03:31:11.383Z,78.26
2022-12-03T03:33:41.657Z,78.01
2022-12-03T03:36:09.416Z,76.47
2022-12-03T03:38:37.223Z,76.10
2022-12-03T03:41:06.978Z,76.34
2022-12-03T03:43:35.651Z,77.28
2022-12-03T03:46:05.559Z,77.31
2022-12-03T03:48:34.679Z,77.50
2022-12-03T03:51:08.818Z,76.95
2022-12-03T03:53:41.385Z,76.84
2022-12-03T03:56:09.782Z,74.64
2022-12-03T03:58:37.899Z,74.84
2022-12-03T04:01:05.053Z,75.79
2022-12-03T04:03:32.207Z,75.71
2022-12-03T04:05:59.175Z,74.59
2022-12-03T04:08:26.449Z,75.09
2022-12-03T04:11:11.887Z,75.36
2022-12-03T04:13:38.958Z,76.00
2022-12-03T04:16:06.224Z,77.02
2022-12-03T04:18:45.379Z,79.35
2022-12-03T04:21:36.215Z,79.10
2022-12-03T04:24:04.387Z,77.16
2022-12-03T04:26:50.041Z,77.31
2022-12-03T04:29:18.994Z,76.13
2022-12-03T04:32:04.319Z,75.97
2022-12-03T04:34:50.010Z,75.75
2022-12-03T04:37:17.099Z,77.33
2022-12-03T04:39:44.311Z,75.32
2022-12-03T04:42:11.464Z,73.73
2022-12-03T04:44:38.480Z,74.04
2022-12-03T04:47:07.116Z,75.00
2022-12-03T04:49:35.819Z,75.41
2022-12-03T04:52:02.818Z,74.14
2022-12-03T04:54:30.562Z,72.70
2022-12-03T04:56:57.574Z,71.38
2022-12-03T04:59:24.575Z,71.99
2022-12-03T05:01:51.690Z,73.85
2022-12-03T05:04:20.901Z,72.41
2022-12-03T05:06:48.152Z,71.54
2022-12-03T05:09:15.431Z,73.37
2022-12-03T05:11:43.159Z,74.36
2022-12-03T05:14:11.198Z,74.64
2022-12-03T05:16:38.769Z,73.44
2022-12-03T05:19:09.993Z,72.88
2022-12-03T05:21:36.955Z,72.67
2022-12-03T05:24:04.309Z,70.54
2022-12-03T05:26:31.347Z,72.95
2022-12-03T05:28:58.381Z,73.66
2022-12-03T05:31:25.535Z,74.09
2022-12-03T05:33:52.675Z,74.54
2022-12-03T05:36:19.663Z,71.61
2022-12-03T05:38:46.648Z,71.86
2022-12-03T05:41:32.157Z,73.63
2022-12-03T05:43:59.190Z,74.17
2022-12-03T05:46:26.254Z,75.23
2022-12-03T05:48:53.363Z,75.53
2022-12-03T05:51:20.324Z,76.82
2022-12-03T05:53:47.282Z,77.33
2022-12-03T05:56:14.279Z,77.19
2022-12-03T05:58:41.269Z,77.43
2022-12-03T06:01:08.526Z,77.77
2022-12-03T06:03:36.043Z,77.45
2022-12-03T06:06:03.179Z,77.10
2022-12-03T06:08:30.375Z,76.28
2022-12-03T06:10:57.351Z,77.14
2022-12-03T06:13:24.324Z,77.67
2022-12-03T06:15:51.382Z,78.68
2022-12-03T06:18:18.583Z,78.43
2022-12-03T06:20:45.569Z,78.17
2022-12-03T06:23:12.679Z,77.88
2022-12-03T06:25:39.652Z,77.91
2022-12-03T06:28:07.483Z,76.74
2022-12-03T06:30:35.951Z,76.02
2022-12-03T06:33:03.149Z,75.64
2022-12-03T06:35:30.239Z,76.02
2022-12-03T06:37:57.286Z,76.53
2022-12-03T06:40:25.250Z,77.51
2022-12-03T06:42:52.507Z,78.28
2022-12-03T06:45:19.550Z,79.22
2022-12-03T06:47:46.739Z,79.32
2022-12-03T06:50:14.015Z,80.19
2022-12-03T06:52:41.278Z,79.35
2022-12-03T06:55:08.873Z,79.04
2022-12-03T06:57:35.989Z,78.91
2022-12-03T07:00:05.998Z,79.37
2022-12-03T07:02:32.979Z,80.54
2022-12-03T07:05:00.012Z,81.20
2022-12-03T07:07:27.047Z,79.86
2022-12-03T07:09:54.164Z,79.65
2022-12-03T07:12:21.153Z,79.70
2022-12-03T07:14:48.200Z,80.96
2022-12-03T07:17:15.213Z,81.37
2022-12-03T07:19:42.671Z,81.71
2022-12-03T07:22:09.670Z,82.36
2022-12-03T07:24:36.755Z,80.89
2022-12-03T07:27:03.822Z,81.71
2022-12-03T07:29:30.879Z,82.53
2022-12-03T07:31:57.930Z,81.39
2022-12-03T07:34:25.004Z,81.31
2022-12-03T07:36:52.384Z,81.79
2022-12-03T07:39:19.363Z,82.38
2022-12-03T07:41:46.335Z,82.30
2022-12-03T07:44:14.816Z,81.98
2022-12-03T07:46:42.895Z,83.11
2022-12-03T07:49:09.974Z,82.06
2022-12-03T07:51:37.042Z,81.13
2022-12-03T07:54:04.686Z,82.21
2022-12-03T07:56:31.712Z,82.14
2022-12-03T07:58:58.692Z,81.34
2022-12-03T08:01:25.888Z,79.81
2022-12-03T08:03:52.943Z,80.79
2022-12-03T08:06:19.955Z,80.70
2022-12-03T08:08:46.932Z,80.98
2022-12-03T08:11:15.136Z,80.17
2022-12-03T08:13:42.824Z,79.65
2022-12-03T08:16:17.190Z,79.05
2022-12-03T08:18:44.990Z,77.90
2022-12-03T08:21:17.572Z,77.59
2022-12-03T08:23:44.726Z,75.65
2022-12-03T08:26:28.191Z,76.98
2022-12-03T08:28:55.283Z,76.99
2022-12-03T08:31:32.787Z,79.23
2022-12-03T08:34:23.955Z,80.45
2022-12-03T08:36:56.453Z,80.12
2022-12-03T08:39:29.391Z,80.26
2022-12-03T08:42:27.536Z,80.58
2022-12-03T08:44:55.741Z,80.66
2022-12-03T08:47:24.729Z,81.10
2022-12-03T08:49:55.962Z,80.29
2022-12-03T08:52:30.218Z,80.14
2022-12-03T08:54:57.655Z,80.02
2022-12-03T08:57:34.716Z,79.00
2022-12-03T09:00:20.489Z,77.98
2022-12-03T09:03:11.015Z,78.43
2022-12-03T09:05:38.007Z,78.82
2022-12-03T09:08:05.147Z,80.20
2022-12-03T09:10:32.157Z,79.10
2022-12-03T09:12:59.769Z,78.06
2022-12-03T09:15:26.942Z,79.85
2022-12-03T09:17:54.484Z,80.83
2022-12-03T09:20:21.473Z,81.08
2022-12-03T09:22:48.488Z,81.70
2022-12-03T09:25:16.137Z,81.07
2022-12-03T09:27:43.136Z,80.44
2022-12-03T09:30:10.465Z,79.31
2022-12-03T09:32:37.671Z,79.97
2022-12-03T09:35:05.618Z,87.22
2022-12-03T09:37:32.625Z,93.43
2022-12-03T09:39:59.765Z,92.02
2022-12-03T09:42:27.238Z,88.17
2022-12-03T09:44:54.738Z,84.82
2022-12-03T09:47:22.509Z,81.21
2022-12-03T09:49:49.545Z,78.70
2022-12-03T09:52:25.496Z,81.08
2022-12-03T09:54:53.931Z,78.41
2022-12-03T09:57:21.236Z,80.03
2022-12-03T09:59:48.322Z,81.06
2022-12-03T10:02:26.912Z,79.71
2022-12-03T10:04:54.629Z,77.18
2022-12-03T10:07:22.603Z,76.66
2022-12-03T10:09:49.730Z,76.80
2022-12-03T10:12:23.136Z,76.86
2022-12-03T10:14:50.690Z,77.14
2022-12-03T10:17:17.925Z,77.56
2022-12-03T10:19:45.200Z,75.63
2022-12-03T10:22:12.616Z,76.50
2022-12-03T10:24:39.722Z,78.90
2022-12-03T10:27:29.592Z,80.82
2022-12-03T10:29:59.428Z,82.08
2022-12-03T10:32:46.956Z,82.35
2022-12-03T10:35:23.174Z,81.65
2022-12-03T10:37:57.284Z,80.23
2022-12-03T10:40:28.747Z,80.38
2022-12-03T10:43:19.015Z,80.76
2022-12-03T10:45:48.008Z,80.86
2022-12-03T10:48:25.506Z,83.18
2022-12-03T10:51:02.033Z,82.53
2022-12-03T10:53:32.475Z,82.54
2022-12-03T10:56:06.124Z,84.11
2022-12-03T10:58:38.183Z,83.09
2022-12-03T11:01:21.888Z,83.22
2022-12-03T11:03:50.088Z,83.24
2022-12-03T11:06:20.416Z,83.32
2022-12-03T11:08:56.741Z,83.72
2022-12-03T11:11:26.664Z,82.40
2022-12-03T11:13:56.345Z,82.50
2022-12-03T11:16:42.071Z,84.23
2022-12-03T11:19:40.912Z,82.58
2022-12-03T11:22:17.572Z,82.12
2022-12-03T11:24:44.585Z,83.99
2022-12-03T11:27:16.960Z,82.95
2022-12-03T11:29:58.957Z,83.33
2022-12-03T11:32:38.132Z,81.82
2022-12-03T11:35:54.363Z,82.55
2022-12-03T11:38:52.867Z,82.84
2022-12-03T11:41:26.428Z,82.92
2022-12-03T11:43:53.471Z,82.25
2022-12-03T11:46:44.773Z,81.42
2022-12-03T11:49:33.491Z,81.69
2022-12-03T11:52:02.998Z,81.22
2022-12-03T11:54:34.583Z,82.00
2022-12-03T11:57:02.701Z,82.25
2022-12-03T11:59:29.798Z,81.87
2022-12-03T12:01:56.863Z,80.54
2022-12-03T12:04:38.111Z,82.43
2022-12-03T12:07:05.300Z,81.99
2022-12-03T12:09:53.851Z,81.10
2022-12-03T12:12:54.415Z,79.97
2022-12-03T12:15:44.323Z,80.54
2022-12-03T12:18:35.866Z,80.22
2022-12-03T12:21:42.148Z,80.07
2022-12-03T12:24:29.386Z,80.24
2022-12-03T12:26:58.562Z,81.12
2022-12-03T12:29:25.638Z,81.50
2022-12-03T12:31:59.782Z,82.30
2022-12-03T12:34:26.855Z,83.41
2022-12-03T12:36:56.940Z,82.18
2022-12-03T12:39:23.965Z,81.18
2022-12-03T12:41:51.726Z,80.66
2022-12-03T12:44:23.432Z,80.96
2022-12-03T12:46:53.812Z,81.27
2022-12-03T12:49:26.843Z,80.27
2022-12-03T12:51:54.055Z,80.16
2022-12-03T12:54:21.200Z,80.69
2022-12-03T12:56:50.352Z,80.41
2022-12-03T12:59:20.668Z,80.26
2022-12-03T13:01:49.929Z,80.15
2022-12-03T13:04:22.751Z,80.22
2022-12-03T13:06:54.014Z,79.70
2022-12-03T13:09:26.013Z,79.03
2022-12-03T13:12:04.168Z,79.48
2022-12-03T13:14:35.196Z,80.69
2022-12-03T13:17:11.018Z,84.16
2022-12-03T13:19:48.306Z,85.75
2022-12-03T13:22:22.668Z,85.83
2022-12-03T13:24:51.100Z,86.82
2022-12-03T13:27:18.149Z,88.71
2022-12-03T13:29:57.302Z,88.45
2022-12-03T13:32:30.959Z,88.88
2022-12-03T13:35:12.902Z,89.41
2022-12-03T13:37:39.922Z,87.63
2022-12-03T13:40:30.760Z,85.88
2022-12-03T13:42:59.556Z,85.79
2022-12-03T13:45:37.525Z,85.12
2022-12-03T13:48:35.568Z,84.20
2022-12-03T13:51:34.888Z,83.65
2022-12-03T13:54:02.708Z,84.46
2022-12-03T13:56:31.926Z,85.30
2022-12-03T13:59:00.633Z,85.42
2022-12-03T14:01:28.639Z,83.74
2022-12-03T14:03:56.496Z,84.37
2022-12-03T14:06:23.578Z,85.18
2022-12-03T14:08:51.558Z,84.98
2022-12-03T14:11:37.304Z,83.65
2022-12-03T14:14:04.343Z,82.86
2022-12-03T14:16:31.531Z,82.92
2022-12-03T14:18:58.631Z,83.51
2022-12-03T14:21:25.595Z,84.14
2022-12-03T14:23:52.612Z,84.24
2022-12-03T14:26:19.653Z,83.27
2022-12-03T14:28:46.669Z,83.01
2022-12-03T14:31:13.774Z,81.88
2022-12-03T14:33:40.806Z,81.56
2022-12-03T14:36:08.097Z,81.42
2022-12-03T14:38:35.082Z,80.78
2022-12-03T14:41:02.244Z,81.21
2022-12-03T14:43:29.322Z,81.53
2022-12-03T14:45:57.038Z,81.60
2022-12-03T14:48:24.057Z,80.87
2022-12-03T14:50:51.038Z,80.33
2022-12-03T14:53:21.439Z,80.20
2022-12-03T14:55:51.130Z,80.16
2022-12-03T14:58:18.124Z,79.71
2022-12-03T15:00:45.115Z,79.99
2022-12-03T15:03:12.136Z,79.37
2022-12-03T15:05:39.156Z,79.27
2022-12-03T15:08:06.317Z,79.41
2022-12-03T15:10:33.349Z,80.95
2022-12-03T15:13:00.379Z,80.30
2022-12-03T15:15:27.433Z,79.63
2022-12-03T15:17:54.402Z,79.31
2022-12-03T15:20:21.427Z,79.43
2022-12-03T15:22:48.436Z,79.53
2022-12-03T15:25:16.148Z,78.46
2022-12-03T15:27:43.659Z,77.90
2022-12-03T15:30:10.758Z,79.15
2022-12-03T15:32:39.879Z,79.30
2022-12-03T15:35:07.431Z,81.20
2022-12-03T15:37:34.556Z,82.11
2022-12-03T15:40:01.552Z,80.76
2022-12-03T15:42:30.267Z,80.81
2022-12-03T15:44:57.299Z,80.18
2022-12-03T15:47:24.532Z,80.63
2022-12-03T15:49:51.847Z,81.46
2022-12-03T15:52:19.081Z,80.36
2022-12-03T15:54:46.526Z,80.13
2022-12-03T15:57:13.519Z,79.79
2022-12-03T15:59:43.629Z,79.50
2022-12-03T16:02:13.837Z,78.94
2022-12-03T16:04:41.027Z,78.98
2022-12-03T16:07:08.014Z,79.47
2022-12-03T16:09:35.012Z,79.02
2022-12-03T16:12:02.029Z,78.64
2022-12-03T16:14:29.028Z,78.04
2022-12-03T16:16:56.124Z,77.96
2022-12-03T16:19:23.100Z,76.24
2022-12-03T16:21:51.271Z,76.11
2022-12-03T16:24:18.271Z,75.21
2022-12-03T16:26:45.315Z,74.44
2022-12-03T16:29:12.985Z,73.48
2022-12-03T16:31:41.462Z,73.30
2022-12-03T16:34:08.478Z,71.97
2022-12-03T16:36:36.086Z,72.90
2022-12-03T16:39:03.651Z,72.15
2022-12-03T16:41:30.671Z,71.93
2022-12-03T16:43:57.764Z,71.06
2022-12-03T16:46:27.658Z,70.89
2022-12-03T16:48:57.980Z,70.99
2022-12-03T16:51:26.802Z,73.33
2022-12-03T16:53:54.582Z,72.36
2022-12-03T16:56:21.611Z,72.46
2022-12-03T16:58:48.640Z,71.99
2022-12-03T17:01:15.692Z,72.46
2022-12-03T17:03:42.718Z,73.12
2022-12-03T17:06:09.694Z,72.05
2022-12-03T17:08:36.740Z,72.80
2022-12-03T17:11:05.063Z,71.52
2022-12-03T17:13:32.096Z,71.20
2022-12-03T17:16:00.933Z,71.04
2022-12-03T17:18:28.964Z,70.16
2022-12-03T17:20:56.053Z,70.98
2022-12-03T17:23:23.271Z,70.69
2022-12-03T17:26:09.016Z,71.06
2022-12-03T17:28:36.094Z,70.25
2022-12-03T17:31:03.156Z,69.53
2022-12-03T17:33:30.265Z,69.90
2022-12-03T17:35:57.296Z,71.49
2022-12-03T17:38:24.284Z,70.46
2022-12-03T17:40:52.556Z,71.37
2022-12-03T17:43:19.531Z,71.57
2022-12-03T17:45:46.542Z,71.43
2022-12-03T17:48:13.587Z,73.96
2022-12-03T17:50:40.609Z,74.58
2022-12-03T17:53:10.513Z,73.35
2022-12-03T17:55:44.535Z,72.34
2022-12-03T17:58:12.840Z,72.15
2022-12-03T18:00:40.351Z,72.70
2022-12-03T18:03:07.472Z,72.18
2022-12-03T18:05:34.535Z,73.57
2022-12-03T18:08:01.654Z,74.31
2022-12-03T18:10:28.767Z,73.20
2022-12-03T18:13:01.291Z,71.95
2022-12-03T18:15:30.355Z,71.48
2022-12-03T18:17:57.403Z,71.23
2022-12-03T18:20:24.416Z,72.81
2022-12-03T18:22:51.676Z,73.38
2022-12-03T18:25:18.896Z,72.89
2022-12-03T18:27:46.764Z,72.65
2022-12-03T18:30:14.091Z,72.62
2022-12-03T18:32:41.172Z,74.83
2022-12-03T18:35:08.499Z,73.88
2022-12-03T18:37:35.790Z,74.11
2022-12-03T18:40:12.432Z,73.65
2022-12-03T18:42:40.277Z,73.48
2022-12-03T18:45:11.406Z,72.89
2022-12-03T18:47:38.630Z,72.68
2022-12-03T18:50:08.092Z,71.88
2022-12-03T18:52:35.582Z,72.59
2022-12-03T18:55:02.539Z,72.77
2022-12-03T18:57:30.144Z,72.79
2022-12-03T18:59:57.446Z,71.69
2022-12-03T19:03:01.928Z,71.55
2022-12-03T19:05:11.759Z,71.65
2022-12-03T19:07:38.823Z,72.12
2022-12-03T19:10:06.574Z,72.18
2022-12-03T19:12:33.827Z,70.71
2022-12-03T19:15:01.235Z,71.19
2022-12-03T19:17:31.662Z,71.51
2022-12-03T19:19:59.748Z,71.49
2022-12-03T19:22:26.746Z,70.84
2022-12-03T19:24:53.745Z,71.29
2022-12-03T19:27:20.774Z,71.83
2022-12-03T19:29:51.128Z,71.52
2022-12-03T19:32:18.207Z,71.10
2022-12-03T19:34:45.234Z,71.96
2022-12-03T19:37:12.304Z,71.46
2022-12-03T19:39:39.300Z,71.55
2022-12-03T19:42:06.294Z,72.18
2022-12-03T19:44:33.367Z,72.51
2022-12-03T19:49:41.613Z,71.03
2022-12-03T19:52:08.693Z,70.77
2022-12-03T19:54:37.028Z,71.65
2022-12-03T19:57:04.109Z,71.08
2022-12-03T19:59:31.123Z,71.94
2022-12-03T20:01:58.367Z,72.52
2022-12-03T20:04:25.438Z,73.11
2022-12-03T20:06:52.459Z,72.29
2022-12-03T20:09:20.831Z,71.23
2022-12-03T20:12:07.836Z,70.80
2022-12-03T20:14:34.791Z,73.31
2022-12-03T20:17:02.120Z,73.24
2022-12-03T20:19:29.121Z,72.42
2022-12-03T20:22:02.161Z,72.53
2022-12-03T20:24:29.611Z,72.63
2022-12-03T20:26:56.632Z,72.71
2022-12-03T20:29:23.611Z,72.50
2022-12-03T20:31:50.718Z,72.07
2022-12-03T20:34:17.771Z,71.48
2022-12-03T20:36:45.611Z,71.74
2022-12-03T20:39:12.784Z,72.03
2022-12-03T20:41:39.728Z,72.10
2022-12-03T20:44:07.681Z,72.26
2022-12-03T20:46:35.279Z,71.18
2022-12-03T20:49:02.724Z,70.63
2022-12-03T20:51:30.948Z,70.83
2022-12-03T20:54:00.036Z,70.56
2022-12-03T20:56:31.577Z,69.63
2022-12-03T20:59:08.284Z,72.35
2022-12-03T21:01:36.450Z,73.04
2022-12-03T21:04:06.456Z,72.96
2022-12-03T21:06:38.270Z,72.59
2022-12-03T21:09:08.382Z,71.68
2022-12-03T21:11:36.467Z,70.80
2022-12-03T21:14:04.248Z,70.06
2022-12-03T21:17:05.874Z,71.49
2022-12-03T21:19:30.099Z,71.51
2022-12-03T21:21:57.148Z,71.27
2022-12-03T21:24:24.631Z,70.35
2022-12-03T21:26:51.685Z,69.94
2022-12-03T21:29:18.879Z,69.31
2022-12-03T21:31:46.732Z,68.80
2022-12-03T21:34:13.865Z,70.25
2022-12-03T21:36:40.935Z,70.96
2022-12-03T21:39:08.085Z,70.88
2022-12-03T21:41:37.821Z,71.68
2022-12-03T21:44:04.926Z,70.63
2022-12-03T21:47:11.087Z,69.01
2022-12-03T21:49:20.339Z,70.51
2022-12-03T21:51:47.323Z,71.56
2022-12-03T21:54:16.757Z,70.53
2022-12-03T21:56:43.869Z,72.71
2022-12-03T21:59:10.874Z,73.47
2022-12-03T22:01:39.671Z,73.00
2022-12-03T22:04:09.909Z,72.42
2022-12-03T22:06:37.203Z,70.91
2022-12-03T22:09:04.580Z,70.79
2022-12-03T22:11:32.614Z,71.43
2022-12-03T22:13:59.590Z,72.53
2022-12-03T22:16:26.590Z,72.38
2022-12-03T22:18:54.344Z,70.36
2022-12-03T22:21:21.929Z,70.55
2022-12-03T22:23:48.878Z,70.20
2022-12-03T22:26:17.768Z,70.49
2022-12-03T22:28:46.314Z,70.04
2022-12-03T22:31:14.020Z,69.93
2022-12-03T22:33:41.402Z,69.30
2022-12-03T22:36:16.401Z,69.74
2022-12-03T22:38:45.711Z,69.54
2022-12-03T22:41:13.674Z,70.08
2022-12-03T22:43:40.783Z,70.91
2022-12-03T22:46:17.827Z,70.10
2022-12-03T22:48:46.625Z,69.71
2022-12-03T22:51:18.063Z,69.61
2022-12-03T22:53:45.145Z,69.94
2022-12-03T22:56:12.222Z,69.00
2022-12-03T22:58:40.578Z,68.46
2022-12-03T23:01:08.193Z,69.05
2022-12-03T23:03:36.138Z,68.57
2022-12-03T23:06:10.783Z,68.57
2022-12-03T23:08:38.123Z,67.76
2022-12-03T23:11:06.064Z,67.79
2022-12-03T23:13:33.160Z,68.27
2022-12-03T23:16:00.285Z,67.80
2022-12-03T23:18:27.416Z,67.60
2022-12-03T23:20:56.582Z,68.46
2022-12-03T23:23:26.749Z,67.64
2022-12-03T23:26:10.818Z,67.84
2022-12-03T23:28:39.178Z,68.60
2022-12-03T23:31:06.304Z,67.80
2022-12-03T23:33:38.256Z,67.33
2022-12-03T23:36:06.671Z,67.57
2022-12-03T23:38:33.844Z,66.61
2022-12-03T23:41:08.729Z,67.18
2022-12-03T23:43:35.996Z,67.04
2022-12-03T23:46:12.143Z,67.09
2022-12-03T23:48:39.717Z,67.72
2022-12-03T23:51:09.210Z,66.73
2022-12-03T23:53:37.320Z,66.72
2022-12-03T23:56:09.391Z,66.18
2022-12-03T23:58:36.528Z,65.91
